Time;durP1;ratioP1;P1;durP2;ratioP2;P2;SDS_P1;SDS_P2;PMS_P1;PMS_P2;Temp;Humidity;BMP_temperature;BMP_pressure;BME280_temperature;BME280_humidity;BME280_pressure;Samples;Min_cycle;Max_cycle;Signal;HPM_P1;HPM_P2
2021/07/14 00:00:15;;;;;;;0.45;0.45;;;;;;;13.33;87.38;96437.72;29395;224;63009;-58
2021/07/14 00:00:48;;;;;;;0.50;0.50;;;;;;;13.35;87.51;96438.19;29395;223;63004;-57
2021/07/14 00:01:19;;;;;;;0.50;0.50;;;;;;;13.36;87.32;96439.00;29395;234;63009;-63
2021/07/14 00:01:52;;;;;;;0.50;0.50;;;;;;;13.36;87.43;96434.34;29394;245;64009;-57
2021/07/14 00:02:24;;;;;;;0.50;0.50;;;;;;;13.36;87.15;96437.06;29395;203;63009;-57
2021/07/14 00:02:56;;;;;;;0.50;0.50;;;;;;;13.38;87.25;96429.38;29395;227;63006;-62
2021/07/14 00:03:28;;;;;;;0.50;0.50;;;;;;;13.39;87.10;96432.91;29395;301;63019;-57
2021/07/14 00:03:59;;;;;;;0.50;0.50;;;;;;;13.39;86.94;96430.97;29395;213;63005;-62
2021/07/14 00:04:32;;;;;;;0.40;0.40;;;;;;;13.42;86.93;96421.38;29394;210;64014;-62
2021/07/14 00:05:09;;;;;;;0.40;0.40;;;;;;;13.44;86.82;96421.84;29395;203;63005;-62
2021/07/14 00:05:41;;;;;;;0.40;0.40;;;;;;;13.44;86.27;96423.78;29395;267;63009;-63
2021/07/14 00:06:12;;;;;;;0.50;0.50;;;;;;;13.43;86.47;96408.53;29395;238;63005;-63
2021/07/14 00:06:43;;;;;;;0.50;0.50;;;;;;;13.43;86.27;96414.00;29395;319;63009;-64
2021/07/14 00:07:15;;;;;;;0.50;0.50;;;;;;;13.43;86.47;96414.00;29395;233;63005;-62
2021/07/14 00:07:48;;;;;;;0.50;0.50;;;;;;;13.49;86.24;96413.50;29395;203;63009;-61
2021/07/14 00:08:20;;;;;;;0.50;0.50;;;;;;;13.52;85.77;96412.03;29394;220;64009;-62
2021/07/14 00:08:51;;;;;;;0.50;0.50;;;;;;;13.54;85.57;96415.25;29394;236;64013;-63
2021/07/14 00:09:22;;;;;;;0.50;0.50;;;;;;;13.51;85.76;96408.53;29395;245;63004;-63
2021/07/14 00:09:54;;;;;;;0.40;0.40;;;;;;;13.50;86.22;96409.66;29395;239;63009;-58
2021/07/14 00:10:29;;;;;;;0.50;0.50;;;;;;;13.48;86.64;96411.09;29395;202;63004;-62
2021/07/14 00:11:02;;;;;;;0.40;0.40;;;;;;;13.47;86.48;96409.50;29395;244;63008;-63
2021/07/14 00:11:38;;;;;;;0.50;0.50;;;;;;;13.46;86.70;96414.16;29395;271;63005;-62
2021/07/14 00:12:14;;;;;;;0.50;0.50;;;;;;;13.48;85.80;96411.09;29395;299;63009;-63
2021/07/14 00:12:54;;;;;;;0.50;0.50;;;;;;;13.48;85.94;96411.09;29395;282;63012;-64
2021/07/14 00:13:33;;;;;;;0.50;0.50;;;;;;;13.47;86.85;96409.50;29395;270;63009;-63
2021/07/14 00:22:12;;;;;;;0.50;0.50;;;;;;;13.31;86.83;96393.63;29394;198;64013;-62
2021/07/14 00:22:44;;;;;;;0.50;0.50;;;;;;;13.30;86.37;96400.22;29394;225;64009;-62
2021/07/14 00:23:15;;;;;;;0.40;0.40;;;;;;;13.32;86.36;96397.97;29395;225;63009;-63
2021/07/14 00:23:46;;;;;;;0.50;0.50;;;;;;;13.32;86.50;96403.41;29395;220;63004;-63
2021/07/14 00:24:17;;;;;;;0.50;0.50;;;;;;;13.33;86.43;96398.75;29395;216;63009;-63
2021/07/14 00:24:49;;;;;;;0.73;0.73;;;;;;;13.32;86.24;96406.13;29395;212;63011;-63
2021/07/14 00:25:20;;;;;;;0.50;0.50;;;;;;;13.33;86.09;96410.47;29395;220;63009;-60
2021/07/14 00:25:52;;;;;;;0.50;0.50;;;;;;;13.34;86.31;96405.81;29395;218;63004;-64
2021/07/14 00:26:23;;;;;;;0.50;0.50;;;;;;;13.36;85.83;96407.09;29395;213;63008;-61
2021/07/14 00:26:54;;;;;;;0.47;0.47;;;;;;;13.39;85.93;96409.19;29395;216;63005;-58
2021/07/14 00:27:26;;;;;;;0.50;0.50;;;;;;;13.40;85.95;96410.78;29395;218;63009;-63
2021/07/14 00:27:57;;;;;;;0.50;0.50;;;;;;;13.38;86.05;96407.59;29394;302;64009;-62
2021/07/14 00:28:29;;;;;;;0.50;0.50;;;;;;;13.37;86.10;96410.63;29394;265;64013;-64
2021/07/14 00:29:02;;;;;;;0.50;0.50;;;;;;;13.36;86.10;96403.56;29395;260;63005;-62
2021/07/14 00:29:37;;;;;;;0.50;0.50;;;;;;;13.35;85.96;96408.22;29395;244;63009;-59
2021/07/14 00:30:14;;;;;;;0.50;0.50;;;;;;;13.34;86.83;96401.16;29395;211;63005;-62
2021/07/14 00:30:52;;;;;;;0.50;0.50;;;;;;;13.32;86.72;96403.41;29395;267;63013;-62
2021/07/14 00:31:24;;;;;;;0.50;0.50;;;;;;;13.33;86.48;96399.56;29395;218;63004;-63
2021/07/14 00:31:55;;;;;;;0.50;0.50;;;;;;;13.35;86.12;96397.31;29395;215;63009;-60
2021/07/14 00:32:28;;;;;;;0.50;0.50;;;;;;;13.37;85.73;96400.53;29395;203;63004;-63
2021/07/14 00:32:59;;;;;;;0.50;0.50;;;;;;;13.38;85.46;96396.69;29395;228;63009;-63
2021/07/14 00:33:32;;;;;;;0.50;0.50;;;;;;;13.38;85.53;96402.13;29394;302;64008;-62
2021/07/14 00:34:07;;;;;;;0.50;0.50;;;;;;;13.40;85.31;96397.16;29395;233;63016;-62
2021/07/14 00:34:38;;;;;;;0.50;0.50;;;;;;;13.39;85.82;96395.56;29395;208;63005;-63
2021/07/14 00:35:12;;;;;;;0.50;0.50;;;;;;;13.38;85.53;96398.59;29395;227;63009;-63
2021/07/14 00:35:45;;;;;;;0.40;0.40;;;;;;;13.39;85.49;96395.56;29394;272;64009;-60
2021/07/14 00:36:17;;;;;;;0.47;0.47;;;;;;;13.44;84.99;96388.34;29395;253;63009;-57
2021/07/14 00:36:48;;;;;;;0.50;0.50;;;;;;;13.43;85.14;96387.53;29395;206;63007;-63
2021/07/14 00:37:20;;;;;;;0.50;0.50;;;;;;;13.44;85.14;96393.78;29394;252;64013;-63
2021/07/14 00:37:52;;;;;;;0.50;0.50;;;;;;;13.41;85.47;96387.06;29395;230;63005;-62
2021/07/14 00:38:27;;;;;;;0.40;0.40;;;;;;;13.38;85.39;96380.34;29394;199;64013;-63
2021/07/14 00:38:58;;;;;;;0.60;0.60;;;;;;;13.37;85.58;96388.81;29395;210;63004;-62
2021/07/14 00:39:29;;;;;;;0.50;0.50;;;;;;;13.35;85.45;96375.53;29395;217;63009;-61
2021/07/14 00:40:05;;;;;;;0.50;0.50;;;;;;;13.35;85.64;96380.97;29395;209;63004;-62
2021/07/14 00:40:36;;;;;;;0.50;0.50;;;;;;;13.32;85.55;96376.16;29395;209;63009;-62
2021/07/14 00:41:08;;;;;;;0.43;0.43;;;;;;;13.32;85.88;96380.81;29395;214;63004;-62
2021/07/14 00:41:40;;;;;;;0.50;0.50;;;;;;;13.30;85.94;96378.41;29395;274;63009;-63
2021/07/14 00:42:15;;;;;;;0.50;0.50;;;;;;;13.28;86.62;96380.66;29395;221;63005;-62
2021/07/14 00:42:47;;;;;;;0.50;0.50;;;;;;;13.25;86.61;96375.84;29395;246;63009;-61
2021/07/14 00:43:18;;;;;;;0.50;0.50;;;;;;;13.24;86.49;96374.25;29394;271;64009;-62
2021/07/14 00:43:50;;;;;;;0.50;0.50;;;;;;;13.24;86.86;96376.97;29395;211;63009;-57
2021/07/14 00:44:22;;;;;;;0.40;0.40;;;;;;;13.21;86.97;96364.00;29394;219;64005;-61
2021/07/14 00:44:54;;;;;;;0.40;0.40;;;;;;;13.20;86.74;96373.28;29395;198;63009;-56
2021/07/14 00:45:26;;;;;;;0.50;0.50;;;;;;;13.20;86.43;96369.75;29395;209;63005;-61
2021/07/14 00:46:24;;;;;;;0.50;0.50;;;;;;;13.22;86.56;96364.78;29395;224;63009;-62
2021/07/14 00:46:56;;;;;;;0.50;0.50;;;;;;;13.21;86.64;96363.19;29395;205;63004;-62
2021/07/14 00:47:31;;;;;;;0.50;0.50;;;;;;;13.20;86.48;96359.66;29395;222;63009;-64
2021/07/14 00:48:05;;;;;;;0.50;0.50;;;;;;;13.18;86.78;96363.81;29395;222;63004;-63
2021/07/14 00:48:36;;;;;;;0.50;0.50;;;;;;;13.17;86.63;96357.56;29394;227;64013;-63
2021/07/14 00:49:10;;;;;;;0.50;0.50;;;;;;;13.17;86.66;96352.13;29395;264;63004;-62
2021/07/14 00:49:41;;;;;;;0.50;0.50;;;;;;;13.17;86.46;96356.81;29395;270;63009;-62
2021/07/14 00:50:13;;;;;;;0.40;0.40;;;;;;;13.17;86.49;96352.13;29395;199;63005;-62
2021/07/14 00:50:45;;;;;;;0.40;0.40;;;;;;;13.18;86.40;96352.94;29394;237;64014;-62
2021/07/14 00:51:18;;;;;;;0.50;0.50;;;;;;;13.19;86.15;96355.34;29395;206;63005;-62
2021/07/14 00:51:50;;;;;;;0.50;0.50;;;;;;;13.20;86.05;96350.69;29395;196;63009;-57
2021/07/14 00:52:22;;;;;;;0.40;0.40;;;;;;;13.19;86.39;96349.87;29395;203;63005;-63
2021/07/14 00:52:53;;;;;;;0.50;0.50;;;;;;;13.18;86.13;96353.72;29395;196;63009;-63
2021/07/14 00:53:25;;;;;;;0.50;0.50;;;;;;;13.23;86.15;96350.03;29395;309;63004;-62
2021/07/14 00:53:58;;;;;;;0.43;0.43;;;;;;;13.24;85.68;96344.28;29395;275;63015;-62
2021/07/14 00:54:29;;;;;;;0.50;0.50;;;;;;;13.25;85.50;96345.06;29395;209;63016;-61
2021/07/14 00:55:02;;;;;;;0.40;0.40;;;;;;;13.29;85.69;96340.59;29395;264;63009;-62
2021/07/14 00:55:34;;;;;;;0.50;0.50;;;;;;;13.28;85.77;96334.34;29394;251;64008;-60
2021/07/14 00:56:10;;;;;;;0.50;0.50;;;;;;;13.29;85.83;96335.13;29394;213;64013;-61
2021/07/14 00:56:41;;;;;;;0.40;0.40;;;;;;;13.28;85.97;96331.62;29395;225;63004;-62
2021/07/14 00:57:18;;;;;;;0.50;0.50;;;;;;;13.28;86.07;96331.62;29394;293;64014;-62
2021/07/14 00:57:49;;;;;;;0.50;0.50;;;;;;;13.24;86.46;96325.22;29395;266;63005;-60
2021/07/14 00:58:21;;;;;;;0.50;0.50;;;;;;;13.22;86.33;96327.44;29395;227;63009;-61
2021/07/14 00:58:54;;;;;;;0.40;0.40;;;;;;;13.20;86.20;96315.28;29395;205;63005;-62
2021/07/14 00:59:25;;;;;;;0.40;0.40;;;;;;;13.19;86.02;96322.66;29395;295;63009;-61
2021/07/14 00:59:56;;;;;;;0.40;0.40;;;;;;;13.17;86.31;96319.44;29395;240;63005;-62
2021/07/14 01:00:29;;;;;;;0.40;0.40;;;;;;;13.18;86.53;96325.69;29394;248;64013;-61
2021/07/14 01:01:03;;;;;;;0.50;0.50;;;;;;;13.19;86.44;96327.28;29395;214;63004;-62
2021/07/14 01:01:35;;;;;;;0.50;0.50;;;;;;;13.19;86.22;96332.75;29395;230;63009;-61
2021/07/14 01:02:06;;;;;;;0.50;0.50;;;;;;;13.18;86.03;96333.88;29395;203;63004;-62
2021/07/14 01:02:38;;;;;;;0.40;0.40;;;;;;;13.16;86.48;96336.94;29395;207;63009;-62
2021/07/14 01:03:12;;;;;;;0.40;0.40;;;;;;;13.14;86.69;96336.44;29395;249;63004;-60
2021/07/14 01:04:18;;;;;;;0.40;0.40;;;;;;;13.13;86.56;96351.16;29395;272;63009;-57
2021/07/14 01:05:05;;;;;;;0.47;0.47;;;;;;;13.14;86.44;96360.16;29394;204;64009;-62
2021/07/14 01:05:44;;;;;;;0.50;0.50;;;;;;;13.14;86.45;96365.59;29395;203;63009;-56
2021/07/14 01:06:28;;;;;;;0.40;0.40;;;;;;;13.14;86.61;96374.56;29395;213;63008;-62
2021/07/14 01:07:16;;;;;;;0.40;0.40;;;;;;;13.15;86.29;96373.44;29395;307;63009;-61
2021/07/14 01:08:04;;;;;;;0.50;0.50;;;;;;;13.16;86.18;96388.69;29395;243;63019;-62
2021/07/14 01:09:04;;;;;;;0.50;0.50;;;;;;;13.18;86.28;96385.63;29395;244;63009;-61
2021/07/14 01:10:03;;;;;;;0.50;0.50;;;;;;;13.20;85.93;96395.06;29394;218;64009;-62
2021/07/14 01:10:52;;;;;;;0.50;0.50;;;;;;;13.21;85.48;96402.13;29395;202;63008;-61
2021/07/14 01:11:25;;;;;;;0.50;0.50;;;;;;;13.21;85.81;96401.31;29395;213;63005;-62
2021/07/14 01:12:06;;;;;;;0.50;0.50;;;;;;;13.18;85.51;96399.25;29395;262;63014;-61
2021/07/14 01:13:03;;;;;;;0.50;0.50;;;;;;;13.16;86.28;96398.78;29417;202;63005;-63
2021/07/14 01:13:42;;;;;;;0.50;0.50;;;;;;;13.14;86.44;96399.09;29395;203;63009;-64
2021/07/14 01:14:22;;;;;;;0.50;0.50;;;;;;;13.13;86.64;96400.19;29395;212;63005;-58
2021/07/14 01:15:08;;;;;;;0.50;0.50;;;;;;;13.13;86.52;96405.66;29394;220;64013;-63
2021/07/14 01:15:57;;;;;;;0.50;0.50;;;;;;;13.13;86.28;96411.09;29395;197;63004;-63
2021/07/14 01:16:39;;;;;;;0.50;0.50;;;;;;;13.13;86.22;96413.81;29395;203;63009;-63
2021/07/14 01:17:13;;;;;;;0.50;0.50;;;;;;;13.15;86.56;96417.03;29395;244;63004;-64
2021/07/14 01:18:03;;;;;;;0.57;0.57;;;;;;;13.17;86.02;96414.78;29395;384;63008;-64
2021/07/14 01:18:50;;;;;;;0.50;0.50;;;;;;;13.18;85.66;96424.56;29394;372;64009;-64
2021/07/14 01:20:03;;;;;;;0.50;0.50;;;;;;;13.16;85.80;96432.28;29395;218;63009;-63
2021/07/14 01:21:17;;;;;;;0.50;0.50;;;;;;;13.17;86.03;96427.63;29395;278;63005;-63
2021/07/14 01:21:53;;;;;;;0.50;0.50;;;;;;;13.16;86.03;96439.66;29395;216;63009;-62
2021/07/14 01:23:07;;;;;;;0.50;0.50;;;;;;;13.14;86.08;96439.94;29395;216;63005;-63
2021/07/14 01:24:21;;;;;;;0.50;0.50;;;;;;;13.15;86.24;96444.28;29394;239;64013;-60
2021/07/14 01:25:37;;;;;;;0.50;0.50;;;;;;;13.15;86.16;96440.75;29395;224;63004;-63
2021/07/14 01:26:26;;;;;;;0.50;0.50;;;;;;;13.14;85.72;96439.94;29395;227;63009;-62
2021/07/14 01:27:12;;;;;;;0.50;0.50;;;;;;;13.15;85.88;96449.72;29395;220;63005;-63
2021/07/14 01:27:47;;;;;;;0.50;0.50;;;;;;;13.17;85.50;96450.19;29394;214;64014;-63
2021/07/14 01:28:29;;;;;;;0.50;0.50;;;;;;;13.17;85.52;96450.19;29395;214;63005;-63
2021/07/14 01:29:06;;;;;;;0.50;0.50;;;;;;;13.18;85.59;96456.44;29395;261;63009;-62
2021/07/14 01:29:54;;;;;;;0.50;0.50;;;;;;;13.18;85.38;96457.25;29395;226;63005;-58
2021/07/14 01:30:26;;;;;;;0.40;0.40;;;;;;;13.18;85.25;96459.19;29395;250;63009;-62
2021/07/14 01:30:59;;;;;;;0.50;0.50;;;;;;;13.17;85.42;96455.66;29395;234;63004;-63
2021/07/14 01:31:32;;;;;;;0.50;0.50;;;;;;;13.15;85.53;96457.87;29395;221;63009;-59
2021/07/14 01:32:06;;;;;;;0.40;0.40;;;;;;;13.14;85.78;96456.28;29395;220;63004;-59
2021/07/14 01:32:39;;;;;;;0.50;0.50;;;;;;;13.15;85.53;96457.87;29394;200;64013;-61
2021/07/14 01:33:12;;;;;;;0.47;0.47;;;;;;;13.17;85.06;96466.53;29395;210;63006;-62
2021/07/14 01:33:46;;;;;;;0.50;0.50;;;;;;;13.18;84.88;96456.44;29395;314;63009;-63
2021/07/14 01:34:20;;;;;;;0.50;0.50;;;;;;;13.13;85.08;96451.97;29395;198;63005;-63
2021/07/14 01:34:56;;;;;;;0.60;0.60;;;;;;;13.14;85.18;96467.19;29395;208;63009;-59
2021/07/14 01:35:32;;;;;;;0.50;0.50;;;;;;;13.13;85.37;96459.31;29395;207;63005;-63
2021/07/14 01:36:13;;;;;;;0.50;0.50;;;;;;;13.11;85.58;96461.56;29395;209;63019;-63
2021/07/14 01:36:48;;;;;;;0.50;0.50;;;;;;;13.09;85.56;96464.59;29417;246;63005;-62
2021/07/14 01:37:22;;;;;;;0.50;0.50;;;;;;;13.10;85.29;96460.75;29395;197;63009;-63
2021/07/14 01:37:55;;;;;;;0.40;0.40;;;;;;;13.11;85.02;96461.56;29394;241;64009;-58
2021/07/14 01:38:28;;;;;;;0.50;0.50;;;;;;;13.09;85.50;96462.69;29395;234;63009;-64
2021/07/14 01:39:02;;;;;;;0.50;0.50;;;;;;;13.09;85.33;96456.44;29394;241;64009;-62
2021/07/14 01:39:35;;;;;;;0.50;0.50;;;;;;;13.08;85.88;96457.56;29395;369;63008;-63
2021/07/14 01:40:08;;;;;;;0.50;0.50;;;;;;;13.06;86.02;96462.53;29394;196;64008;-63
2021/07/14 01:40:41;;;;;;;0.50;0.50;;;;;;;13.05;85.82;96463.63;29395;213;63008;-59
2021/07/14 01:41:20;;;;;;;0.50;0.50;;;;;;;13.03;86.16;96461.22;29395;196;63005;-63
2021/07/14 01:41:54;;;;;;;0.50;0.50;;;;;;;13.02;86.04;96459.63;29395;238;63009;-62
2021/07/14 01:42:29;;;;;;;0.50;0.50;;;;;;;13.01;86.54;96462.66;29395;231;63005;-62
2021/07/14 01:43:05;;;;;;;0.50;0.50;;;;;;;12.99;86.42;96454.81;29394;219;64013;-63
2021/07/14 01:43:43;;;;;;;0.50;0.50;;;;;;;13.01;86.32;96462.66;29394;226;64009;-62
2021/07/14 01:44:18;;;;;;;0.50;0.50;;;;;;;13.02;86.00;96458.81;29395;206;63020;-63
2021/07/14 01:44:53;;;;;;;0.43;0.43;;;;;;;13.01;86.20;96462.66;29395;246;63004;-62
2021/07/14 01:45:32;;;;;;;0.50;0.50;;;;;;;13.00;85.97;96461.06;29395;246;63008;-62
2021/07/14 01:46:06;;;;;;;0.50;0.50;;;;;;;12.99;86.37;96465.72;29395;225;63004;-63
2021/07/14 01:46:38;;;;;;;0.50;0.50;;;;;;;13.00;86.30;96469.22;29395;203;63009;-63
2021/07/14 01:47:09;;;;;;;0.47;0.47;;;;;;;12.99;86.42;96459.47;29394;393;64008;-64
2021/07/14 01:47:41;;;;;;;0.50;0.50;;;;;;;12.99;86.79;96471.16;29395;215;63008;-63
2021/07/14 01:48:15;;;;;;;0.43;0.43;;;;;;;12.99;87.19;96464.91;29395;199;63005;-63
2021/07/14 01:48:48;;;;;;;0.43;0.43;;;;;;;12.97;86.87;96461.69;29395;203;63009;-63
2021/07/14 01:49:21;;;;;;;0.40;0.40;;;;;;;12.95;87.42;96464.75;29395;227;63005;-61
2021/07/14 01:49:56;;;;;;;0.50;0.50;;;;;;;12.95;87.57;96458.50;29395;219;63009;-63
2021/07/14 01:50:30;;;;;;;0.50;0.50;;;;;;;12.94;87.38;96463.13;29394;216;64009;-60
2021/07/14 01:51:02;;;;;;;0.47;0.47;;;;;;;12.95;87.23;96458.50;29395;225;63009;-61
2021/07/14 01:51:38;;;;;;;0.88;0.88;;;;;;;12.94;87.14;96462.34;29395;209;63005;-57
2021/07/14 01:52:14;;;;;;;0.50;0.50;;;;;;;12.92;86.80;96461.84;29395;218;63009;-62
2021/07/14 01:52:47;;;;;;;0.50;0.50;;;;;;;12.91;86.97;96452.88;29395;243;63004;-62
2021/07/14 01:53:20;;;;;;;0.40;0.40;;;;;;;12.91;87.57;96463.75;29395;203;63009;-61
2021/07/14 01:53:52;;;;;;;0.50;0.50;;;;;;;12.91;87.29;96458.31;29395;225;63004;-61
2021/07/14 01:54:27;;;;;;;0.40;0.40;;;;;;;12.91;86.96;96458.31;29395;309;63009;-63
2021/07/14 01:55:02;;;;;;;0.50;0.50;;;;;;;12.91;86.88;96462.97;29394;254;64008;-61
2021/07/14 01:55:40;;;;;;;0.50;0.50;;;;;;;12.93;86.79;96460.72;29395;226;63026;-60
2021/07/14 01:56:13;;;;;;;0.50;0.50;;;;;;;12.92;86.89;96459.94;29395;218;63005;-62
2021/07/14 01:56:48;;;;;;;0.50;0.50;;;;;;;12.93;86.82;96458.81;29395;220;63009;-60
2021/07/14 01:57:22;;;;;;;0.50;0.50;;;;;;;12.95;87.05;96459.28;29395;252;63005;-56
2021/07/14 01:57:55;;;;;;;0.50;0.50;;;;;;;12.96;86.47;96455.44;29395;228;63013;-61
2021/07/14 01:58:28;;;;;;;0.40;0.40;;;;;;;12.96;86.51;96455.44;29395;225;63011;-61
2021/07/14 01:59:01;;;;;;;0.50;0.50;;;;;;;12.98;86.56;96461.38;29395;202;63009;-62
2021/07/14 01:59:35;;;;;;;0.50;0.50;;;;;;;12.99;86.63;96454.00;29395;204;63005;-62
2021/07/14 02:00:12;;;;;;;0.50;0.50;;;;;;;13.00;86.44;96455.63;29394;204;64013;-62
2021/07/14 02:00:44;;;;;;;0.50;0.50;;;;;;;13.01;86.50;96457.22;29395;221;63004;-62
2021/07/14 02:01:19;;;;;;;0.40;0.40;;;;;;;13.02;86.26;96456.09;29395;221;63019;-61
2021/07/14 02:01:53;;;;;;;0.40;0.40;;;;;;;13.02;85.96;96453.38;29394;228;64009;-62
2021/07/14 02:02:28;;;;;;;0.40;0.40;;;;;;;13.01;85.86;96452.56;29395;197;63008;-57
2021/07/14 02:04:30;;;;;;;0.40;0.40;;;;;;;13.01;86.36;96451.78;29395;202;63009;-62
2021/07/14 02:04:46;;;;;;;0.50;0.50;;;;;;;13.02;86.03;96442.50;29395;243;63009;-60
2021/07/14 02:05:20;;;;;;;0.40;0.40;;;;;;;13.01;85.80;96446.31;29395;225;63009;-61
2021/07/14 02:05:53;;;;;;;0.50;0.50;;;;;;;13.02;86.04;96447.94;29395;229;63012;-61
2021/07/14 02:06:25;;;;;;;0.50;0.50;;;;;;;13.03;85.96;96444.09;29395;209;63009;-57
2021/07/14 02:07:12;;;;;;;0.50;0.50;;;;;;;13.01;85.88;96440.87;29395;213;63005;-61
2021/07/14 02:07:44;;;;;;;0.50;0.50;;;;;;;13.00;86.51;96442.81;29394;229;64013;-61
2021/07/14 02:08:16;;;;;;;0.50;0.50;;;;;;;12.97;86.33;96440.72;29395;202;63004;-62
2021/07/14 02:08:47;;;;;;;0.40;0.40;;;;;;;12.93;86.35;96439.75;29395;276;63009;-62
2021/07/14 02:09:19;;;;;;;0.50;0.50;;;;;;;12.93;86.44;96444.38;29395;246;63004;-62
2021/07/14 02:09:52;;;;;;;0.40;0.40;;;;;;;12.90;86.59;96447.75;29395;229;63008;-62
2021/07/14 02:10:23;;;;;;;1.60;1.52;;;;;;;12.88;86.74;96450.78;29395;225;63004;-63
2021/07/14 02:10:59;;;;;;;0.50;0.50;;;;;;;12.87;87.18;96451.09;29394;225;64014;-63
2021/07/14 02:11:31;;;;;;;0.40;0.40;;;;;;;12.85;86.96;96442.44;29395;246;63005;-62
2021/07/14 02:12:08;;;;;;;0.50;0.50;;;;;;;12.84;87.20;96447.09;29395;244;63009;-57
2021/07/14 02:12:44;;;;;;;0.50;0.50;;;;;;;12.82;87.54;96448.56;29395;219;63009;-62
2021/07/14 02:13:17;;;;;;;0.50;0.50;;;;;;;12.80;87.11;96439.91;29395;225;63009;-61
2021/07/14 02:13:55;;;;;;;0.40;0.40;;;;;;;12.80;87.38;96445.34;29395;325;63005;-62
2021/07/14 02:14:37;;;;;;;0.50;0.50;;;;;;;12.79;87.47;96449.19;29395;266;63009;-63
2021/07/14 02:15:10;;;;;;;0.50;0.50;;;;;;;12.78;87.38;96442.94;29395;250;63004;-61
2021/07/14 02:15:44;;;;;;;0.40;0.40;;;;;;;12.81;87.47;96444.22;29394;200;64013;-61
2021/07/14 02:16:17;;;;;;;0.50;0.50;;;;;;;12.80;87.47;96440.69;29394;225;64009;-62
2021/07/14 02:16:51;;;;;;;0.50;0.50;;;;;;;12.81;87.58;96438.78;29395;206;63009;-62
2021/07/14 02:17:25;;;;;;;0.50;0.50;;;;;;;12.80;87.83;96437.97;29395;287;63004;-61
2021/07/14 02:18:11;;;;;;;0.50;0.50;;;;;;;12.80;87.54;96435.25;29395;205;63008;-61
2021/07/14 02:18:49;;;;;;;0.50;0.50;;;;;;;12.81;87.70;96438.78;29395;199;63005;-56
2021/07/14 02:19:22;;;;;;;0.50;0.50;;;;;;;12.83;87.26;96436.53;29395;216;63009;-61
2021/07/14 02:20:03;;;;;;;0.50;0.50;;;;;;;12.83;87.35;96428.34;29395;203;63005;-61
2021/07/14 02:20:36;;;;;;;0.50;0.50;;;;;;;12.83;87.32;96429.16;29395;204;63009;-62
2021/07/14 02:21:07;;;;;;;11.02;4.87;;;;;;;12.83;86.89;96428.34;29389;259;65009;-62
2021/07/14 02:21:39;;;;;;;0.50;0.50;;;;;;;12.81;87.02;96431.41;29395;219;63009;-61
2021/07/14 02:22:10;;;;;;;0.50;0.50;;;;;;;12.82;87.26;96432.22;29395;222;63005;-61
2021/07/14 02:22:42;;;;;;;0.40;0.40;;;;;;;12.82;86.95;96433.00;29395;218;63009;-63
2021/07/14 02:23:14;;;;;;;0.47;0.47;;;;;;;12.83;86.74;96433.78;29395;262;63004;-62
2021/07/14 02:23:45;;;;;;;0.50;0.50;;;;;;;12.82;87.08;96435.72;29395;226;63009;-62
2021/07/14 02:24:17;;;;;;;0.50;0.50;;;;;;;12.81;87.61;96428.69;29395;218;63004;-64
2021/07/14 02:24:49;;;;;;;0.50;0.50;;;;;;;12.80;87.63;96431.75;29395;224;63009;-63
2021/07/14 02:25:22;;;;;;;0.50;0.50;;;;;;;12.81;87.42;96430.62;29395;240;63004;-64
2021/07/14 02:25:53;;;;;;;0.45;0.45;;;;;;;12.81;87.44;96436.06;29394;203;64014;-63
2021/07/14 02:26:25;;;;;;;0.50;0.50;;;;;;;12.82;87.55;96437.66;29394;284;64009;-63
2021/07/14 02:27:04;;;;;;;0.40;0.40;;;;;;;12.81;87.26;96427.91;29395;257;63009;-62
2021/07/14 02:27:36;;;;;;;0.40;0.40;;;;;;;12.82;87.11;96429.50;29394;295;64009;-62
2021/07/14 02:28:07;;;;;;;0.50;0.50;;;;;;;12.83;87.08;96429.16;29395;300;63009;-63
2021/07/14 02:28:39;;;;;;;0.40;0.40;;;;;;;12.83;87.19;96429.16;29394;238;64005;-63
2021/07/14 02:29:14;;;;;;;0.50;0.50;;;;;;;12.82;87.21;96427.56;29395;302;63009;-62
2021/07/14 02:29:49;;;;;;;0.45;0.45;;;;;;;12.82;87.19;96426.78;29395;221;63005;-64
2021/07/14 02:30:23;;;;;;;0.50;0.50;;;;;;;12.82;87.52;96426.78;29395;213;63009;-64
2021/07/14 02:30:56;;;;;;;0.50;0.50;;;;;;;12.81;87.28;96419.72;29395;203;63004;-63
2021/07/14 02:31:27;;;;;;;0.50;0.50;;;;;;;12.82;87.09;96421.34;29395;324;63009;-64
2021/07/14 02:31:59;;;;;;;0.50;0.50;;;;;;;12.82;86.99;96422.09;29395;202;63004;-61
2021/07/14 02:32:30;;;;;;;0.50;0.50;;;;;;;12.82;87.13;96426.78;29395;216;63008;-59
2021/07/14 02:33:14;;;;;;;0.50;0.50;;;;;;;12.81;87.15;96425.19;29394;196;64008;-59
2021/07/14 02:33:46;;;;;;;0.47;0.47;;;;;;;12.82;86.96;96429.50;29395;200;63020;-63
2021/07/14 02:34:17;;;;;;;0.50;0.50;;;;;;;12.83;87.07;96422.91;29395;202;63005;-62
2021/07/14 02:34:52;;;;;;;0.50;0.50;;;;;;;12.82;86.74;96426.78;29395;243;63009;-62
2021/07/14 02:35:27;;;;;;;0.50;0.50;;;;;;;12.81;87.05;96422.44;29395;203;63005;-62
2021/07/14 02:36:03;;;;;;;0.50;0.50;;;;;;;12.81;86.89;96427.91;29395;208;63009;-64
2021/07/14 02:36:36;;;;;;;0.40;0.40;;;;;;;12.79;87.00;96430.94;29395;239;63005;-64
2021/07/14 02:37:11;;;;;;;0.50;0.50;;;;;;;12.80;87.34;96426.28;29395;226;63023;-58
2021/07/14 02:38:12;;;;;;;0.50;0.50;;;;;;;12.80;87.30;96434.47;29394;215;64009;-63
2021/07/14 02:38:49;;;;;;;0.50;0.50;;;;;;;12.78;87.54;96432.06;29394;206;64013;-64
2021/07/14 02:39:21;;;;;;;0.50;0.50;;;;;;;12.77;87.26;96430.44;29395;254;63004;-62
2021/07/14 02:39:55;;;;;;;0.50;0.50;;;;;;;12.73;87.77;96433.00;29394;238;64013;-63
2021/07/14 02:41:07;;;;;;;0.50;0.50;;;;;;;12.71;87.83;96435.25;29395;199;63004;-63
2021/07/14 02:42:06;;;;;;;0.50;0.50;;;;;;;12.73;87.83;96429.47;29395;202;63009;-61
2021/07/14 02:42:40;;;;;;;0.55;0.55;;;;;;;12.72;87.73;96428.69;29395;247;63005;-62
2021/07/14 02:43:13;;;;;;;0.50;0.50;;;;;;;12.73;87.48;96435.72;29394;246;64013;-61
2021/07/14 02:43:50;;;;;;;0.50;0.50;;;;;;;12.73;87.31;96430.28;29395;254;63017;-63
2021/07/14 02:44:25;;;;;;;0.50;0.50;;;;;;;12.75;87.38;96432.69;29395;217;63009;-62
2021/07/14 02:45:01;;;;;;;0.50;0.50;;;;;;;12.77;87.53;96435.09;29395;263;63004;-61
2021/07/14 02:45:40;;;;;;;0.40;0.40;;;;;;;12.75;87.18;96430.75;29395;202;63009;-61
2021/07/14 02:46:15;;;;;;;0.50;0.50;;;;;;;12.75;87.60;96436.22;29395;204;63014;-62
2021/07/14 02:46:49;;;;;;;0.50;0.50;;;;;;;12.76;87.16;96434.28;29395;203;63008;-62
2021/07/14 02:47:22;;;;;;;0.50;0.50;;;;;;;12.78;87.27;96425.81;29395;202;63004;-63
2021/07/14 02:47:56;;;;;;;0.47;0.47;;;;;;;12.80;87.12;96429.00;29394;243;64013;-61
2021/07/14 02:48:29;;;;;;;0.50;0.50;;;;;;;12.80;87.45;96426.28;29395;206;63005;-62
2021/07/14 02:49:07;;;;;;;0.50;0.50;;;;;;;12.81;87.27;96436.88;29394;223;64014;-62
2021/07/14 02:49:40;;;;;;;0.50;0.50;;;;;;;12.81;87.22;96423.25;29395;202;63005;-63
2021/07/14 02:50:24;;;;;;;0.50;0.50;;;;;;;12.80;86.87;96421.66;29395;202;63009;-62
2021/07/14 02:50:58;;;;;;;0.50;0.50;;;;;;;12.80;87.21;96426.28;29395;212;63005;-62
2021/07/14 02:51:33;;;;;;;0.50;0.50;;;;;;;12.78;87.57;96417.63;29394;230;64013;-62
2021/07/14 02:52:08;;;;;;;0.43;0.43;;;;;;;12.78;87.56;96420.34;29395;202;63004;-63
2021/07/14 02:52:42;;;;;;;0.50;0.50;;;;;;;12.77;87.55;96419.56;29395;288;63009;-61
2021/07/14 02:53:18;;;;;;;0.50;0.50;;;;;;;12.80;87.63;96420.84;29395;222;63004;-63
2021/07/14 02:53:53;;;;;;;0.50;0.50;;;;;;;12.80;87.54;96418.94;29395;212;63012;-64
2021/07/14 02:54:27;;;;;;;0.50;0.50;;;;;;;12.82;87.18;96418.59;29395;223;63004;-62
2021/07/14 02:55:00;;;;;;;0.50;0.50;;;;;;;12.80;87.40;96413.47;29395;385;63008;-61
2021/07/14 02:55:33;;;;;;;0.50;0.50;;;;;;;12.82;87.35;96415.88;29395;219;63005;-62
2021/07/14 02:56:14;;;;;;;0.50;0.50;;;;;;;12.81;87.29;96417.81;29395;208;63009;-62
2021/07/14 02:56:48;;;;;;;0.45;0.45;;;;;;;12.83;87.01;96418.25;29416;254;64009;-62
2021/07/14 02:57:23;;;;;;;0.50;0.50;;;;;;;12.84;86.84;96416.34;29395;216;63009;-62
2021/07/14 02:57:58;;;;;;;0.50;0.50;;;;;;;12.86;86.96;96416.81;29395;219;63005;-63
2021/07/14 02:58:32;;;;;;;0.40;0.40;;;;;;;12.88;86.73;96414.59;29395;204;63009;-62
2021/07/14 02:59:08;;;;;;;0.50;0.50;;;;;;;12.87;86.63;96412.97;29395;197;63005;-62
2021/07/14 02:59:44;;;;;;;0.50;0.50;;;;;;;12.89;86.39;96413.47;29395;203;63009;-63
2021/07/14 03:00:16;;;;;;;0.50;0.50;;;;;;;12.87;86.68;96408.34;29395;366;63004;-63